createdAt,value
2022-08-31T00:02:27.271Z,64.80
2022-08-31T00:04:57.296Z,64.80
2022-08-31T00:07:25.506Z,64.80
2022-08-31T00:09:53.625Z,65.00
2022-08-31T00:12:23.162Z,65.00
2022-08-31T00:14:52.350Z,65.00
2022-08-31T00:17:20.540Z,65.00
2022-08-31T00:19:48.709Z,65.00
2022-08-31T00:22:16.822Z,65.00
2022-08-31T00:24:44.930Z,65.00
2022-08-31T00:27:15.296Z,65.20
2022-08-31T00:29:45.391Z,65.20
2022-08-31T00:32:13.515Z,65.30
2022-08-31T00:34:41.944Z,65.30
2022-08-31T00:37:11.956Z,65.30
2022-08-31T00:39:40.077Z,65.30
2022-08-31T00:42:08.935Z,65.30
2022-08-31T00:44:37.039Z,65.30
2022-08-31T00:47:07.102Z,65.30
2022-08-31T00:49:36.499Z,65.30
2022-08-31T00:52:06.224Z,65.40
2022-08-31T00:54:36.254Z,65.30
2022-08-31T00:57:04.830Z,66.40
2022-08-31T00:59:33.151Z,65.50
2022-08-31T01:02:01.635Z,65.50
2022-08-31T01:04:31.214Z,65.40
2022-08-31T01:06:59.544Z,65.40
2022-08-31T01:09:28.443Z,65.50
2022-08-31T01:11:56.640Z,65.50
2022-08-31T01:14:25.093Z,65.50
2022-08-31T01:16:54.617Z,65.60
2022-08-31T01:19:25.913Z,65.60
2022-08-31T01:21:58.256Z,65.70
2022-08-31T01:24:27.899Z,65.60
2022-08-31T01:26:56.105Z,65.50
2022-08-31T01:29:24.596Z,65.50
2022-08-31T01:31:52.793Z,65.50
2022-08-31T01:34:20.972Z,65.50
2022-08-31T01:36:49.238Z,65.50
2022-08-31T01:39:17.350Z,66.40
2022-08-31T01:41:46.865Z,66.50
2022-08-31T01:44:16.191Z,65.40
2022-08-31T01:46:45.288Z,65.40
2022-08-31T01:49:13.540Z,65.40
2022-08-31T01:51:42.649Z,65.40
2022-08-31T01:54:10.802Z,65.40
2022-08-31T01:56:40.368Z,65.30
2022-08-31T01:59:14.406Z,65.30
2022-08-31T02:02:00.345Z,65.30
2022-08-31T02:04:29.574Z,65.30
2022-08-31T02:06:58.992Z,65.30
2022-08-31T02:09:27.124Z,66.20
2022-08-31T02:11:55.247Z,65.20
2022-08-31T02:14:24.781Z,65.10
2022-08-31T02:16:52.902Z,65.10
2022-08-31T02:19:21.008Z,65.20
2022-08-31T02:21:49.180Z,65.10
2022-08-31T02:24:18.337Z,65.00
2022-08-31T02:26:49.388Z,64.90
2022-08-31T02:29:19.861Z,64.80
2022-08-31T02:31:49.526Z,64.80
2022-08-31T02:34:18.275Z,65.80
2022-08-31T02:36:46.455Z,65.00
2022-08-31T02:39:15.474Z,64.90
2022-08-31T02:41:43.664Z,64.80
2022-08-31T02:44:11.871Z,64.80
2022-08-31T02:46:40.122Z,64.70
2022-08-31T02:49:26.952Z,64.70
2022-08-31T02:51:55.593Z,64.70
2022-08-31T02:54:23.874Z,64.80
2022-08-31T02:56:53.326Z,64.70
2022-08-31T02:59:21.767Z,64.70
2022-08-31T03:01:50.054Z,64.70
2022-08-31T03:04:18.661Z,64.70
2022-08-31T03:06:48.851Z,64.70
2022-08-31T03:09:17.239Z,64.70
2022-08-31T03:11:45.382Z,64.60
2022-08-31T03:14:13.617Z,64.70
2022-08-31T03:16:41.743Z,64.60
2022-08-31T03:19:10.370Z,64.60
2022-08-31T03:21:38.510Z,64.70
2022-08-31T03:24:08.861Z,64.70
2022-08-31T03:26:36.996Z,64.70
2022-08-31T03:29:05.288Z,64.70
2022-08-31T03:31:36.045Z,64.70
2022-08-31T03:34:04.834Z,64.70
2022-08-31T03:36:33.046Z,64.50
2022-08-31T03:39:01.209Z,64.60
2022-08-31T03:41:30.857Z,64.60
2022-08-31T03:44:01.886Z,64.50
2022-08-31T03:46:33.661Z,64.60
2022-08-31T03:49:02.618Z,64.60
2022-08-31T03:51:32.823Z,64.50
2022-08-31T03:54:01.180Z,64.50
2022-08-31T03:56:30.874Z,64.40
2022-08-31T03:58:59.221Z,64.50
2022-08-31T04:01:53.305Z,64.70
2022-08-31T04:04:40.237Z,64.70
2022-08-31T04:07:42.546Z,64.70
2022-08-31T04:10:31.599Z,64.70
2022-08-31T04:13:19.881Z,64.60
2022-08-31T04:16:13.095Z,64.70
2022-08-31T04:19:04.277Z,64.80
2022-08-31T04:21:41.259Z,64.70
2022-08-31T04:24:13.429Z,64.70
2022-08-31T04:26:41.784Z,64.70
2022-08-31T04:29:13.638Z,64.70
2022-08-31T04:31:42.855Z,64.70
2022-08-31T04:34:11.037Z,64.90
2022-08-31T04:36:39.343Z,64.80
2022-08-31T04:39:07.910Z,64.70
2022-08-31T04:41:37.488Z,64.80
2022-08-31T04:44:06.427Z,64.70
2022-08-31T04:46:37.379Z,64.70
2022-08-31T04:49:07.863Z,64.70
2022-08-31T04:51:36.635Z,64.80
2022-08-31T04:54:05.117Z,64.70
2022-08-31T04:56:34.334Z,64.70
2022-08-31T04:59:03.551Z,64.70
2022-08-31T05:01:42.427Z,64.70
2022-08-31T05:04:30.400Z,64.70
2022-08-31T05:06:58.584Z,64.70
2022-08-31T05:09:27.192Z,64.70
2022-08-31T05:11:57.166Z,64.80
2022-08-31T05:14:26.420Z,64.70
2022-08-31T05:17:06.273Z,64.80
2022-08-31T05:19:41.980Z,64.70
2022-08-31T05:22:10.189Z,64.80
2022-08-31T05:24:40.363Z,64.80
2022-08-31T05:27:09.741Z,64.80
2022-08-31T05:29:37.890Z,64.80
2022-08-31T05:32:37.943Z,64.80
2022-08-31T05:35:08.664Z,64.80
2022-08-31T05:37:36.949Z,64.80
2022-08-31T05:40:05.915Z,64.80
2022-08-31T05:42:34.206Z,64.80
2022-08-31T05:45:02.486Z,64.80
2022-08-31T05:47:31.904Z,64.90
2022-08-31T05:50:02.207Z,64.90
2022-08-31T05:52:30.930Z,64.90
2022-08-31T05:55:00.155Z,64.70
2022-08-31T05:57:28.439Z,64.80
2022-08-31T05:59:58.744Z,64.70
2022-08-31T06:02:29.029Z,64.70
2022-08-31T06:04:58.438Z,64.60
2022-08-31T06:07:28.265Z,64.70
2022-08-31T06:10:01.351Z,64.70
2022-08-31T06:12:34.303Z,64.70
2022-08-31T06:15:05.178Z,65.60
2022-08-31T06:17:34.855Z,64.50
2022-08-31T06:20:03.510Z,64.50
2022-08-31T06:22:34.439Z,64.60
2022-08-31T06:25:04.798Z,64.60
2022-08-31T06:27:33.446Z,64.20
2022-08-31T06:30:02.255Z,64.20
2022-08-31T06:32:35.207Z,63.70
2022-08-31T06:35:05.843Z,63.40
2022-08-31T06:37:48.970Z,62.70
2022-08-31T06:40:37.471Z,62.40
2022-08-31T06:43:24.162Z,62.20
2022-08-31T06:46:01.188Z,61.40
2022-08-31T06:48:39.059Z,62.10
2022-08-31T06:51:08.322Z,61.60
2022-08-31T06:53:40.180Z,61.30
2022-08-31T06:56:20.370Z,60.50
2022-08-31T06:59:12.622Z,61.40
2022-08-31T07:01:57.458Z,62.10
2022-08-31T07:04:34.203Z,62.40
2022-08-31T07:07:02.344Z,62.20
2022-08-31T07:09:31.975Z,62.00
2022-08-31T07:12:00.236Z,61.90
2022-08-31T07:14:28.534Z,61.70
2022-08-31T07:16:59.730Z,61.60
2022-08-31T07:19:28.121Z,61.10
2022-08-31T07:21:58.135Z,60.30
2022-08-31T07:24:27.770Z,60.30
2022-08-31T07:26:58.988Z,61.60
2022-08-31T07:29:40.474Z,61.60
2022-08-31T07:32:13.069Z,61.40
2022-08-31T07:34:41.736Z,61.30
2022-08-31T07:37:49.737Z,61.30
2022-08-31T07:40:37.055Z,61.40
2022-08-31T07:43:08.967Z,61.40
2022-08-31T07:45:39.589Z,61.50
2022-08-31T07:48:08.593Z,61.50
2022-08-31T07:50:56.674Z,61.60
2022-08-31T07:53:47.449Z,61.80
2022-08-31T07:56:26.962Z,62.00
2022-08-31T07:59:16.851Z,62.00
2022-08-31T08:01:46.910Z,61.80
2022-08-31T08:04:25.289Z,61.80
2022-08-31T08:07:22.900Z,61.80
2022-08-31T08:10:02.544Z,61.80
2022-08-31T08:12:57.335Z,61.90
2022-08-31T08:15:58.048Z,61.80
2022-08-31T08:18:36.091Z,61.80
2022-08-31T08:21:04.951Z,61.80
2022-08-31T08:23:33.445Z,61.90
2022-08-31T08:26:21.858Z,61.90
2022-08-31T08:29:06.170Z,62.10
2022-08-31T08:31:38.823Z,62.10
2022-08-31T08:34:07.434Z,62.10
2022-08-31T08:36:37.853Z,61.90
2022-08-31T08:39:08.853Z,61.90
2022-08-31T08:41:39.505Z,61.90
2022-08-31T08:44:10.011Z,61.90
2022-08-31T08:46:48.254Z,61.80
2022-08-31T08:49:22.410Z,61.90
2022-08-31T08:51:55.560Z,62.00
2022-08-31T08:54:30.599Z,61.90
2022-08-31T08:56:59.914Z,61.90
2022-08-31T08:59:30.234Z,62.00
2022-08-31T09:02:06.922Z,61.90
2022-08-31T09:04:59.654Z,62.00
2022-08-31T09:07:56.294Z,62.20
2022-08-31T09:10:28.647Z,62.30
2022-08-31T09:13:01.678Z,62.30
2022-08-31T09:15:41.963Z,62.20
2022-08-31T09:18:24.853Z,62.20
2022-08-31T09:21:05.681Z,62.10
2022-08-31T09:23:36.827Z,62.00
2022-08-31T09:26:08.388Z,62.10
2022-08-31T09:29:03.841Z,62.00
2022-08-31T09:31:38.242Z,62.10
2022-08-31T09:34:14.262Z,62.20
2022-08-31T09:36:42.545Z,62.20
2022-08-31T09:39:21.655Z,62.10
2022-08-31T09:41:49.998Z,62.10
2022-08-31T09:44:31.037Z,62.00
2022-08-31T09:47:02.954Z,62.00
2022-08-31T09:49:36.653Z,62.10
2022-08-31T09:52:50.276Z,62.20
2022-08-31T09:55:21.418Z,62.10
2022-08-31T09:57:54.251Z,62.10
2022-08-31T10:00:33.177Z,62.20
2022-08-31T10:03:09.014Z,62.20
2022-08-31T10:05:41.872Z,62.10
2022-08-31T10:08:19.681Z,62.10
2022-08-31T10:10:48.940Z,61.90
2022-08-31T10:13:19.109Z,61.90
2022-08-31T10:15:52.753Z,61.90
2022-08-31T10:18:24.739Z,61.70
2022-08-31T10:20:55.977Z,61.60
2022-08-31T10:23:27.226Z,61.50
2022-08-31T10:25:58.978Z,61.40
2022-08-31T10:28:32.175Z,61.50
2022-08-31T10:31:02.211Z,61.40
2022-08-31T10:33:52.379Z,61.40
2022-08-31T10:36:25.264Z,61.30
2022-08-31T10:38:54.220Z,61.30
2022-08-31T10:41:25.711Z,61.20
2022-08-31T10:44:02.721Z,61.10
2022-08-31T10:46:34.583Z,61.20
2022-08-31T10:49:04.068Z,61.10
2022-08-31T10:51:37.303Z,61.10
2022-08-31T10:54:22.030Z,61.10
2022-08-31T10:56:55.481Z,61.10
2022-08-31T10:59:27.372Z,61.10
2022-08-31T11:01:58.381Z,61.20
2022-08-31T11:04:40.138Z,61.10
2022-08-31T11:07:14.525Z,61.00
2022-08-31T11:09:46.433Z,61.00
2022-08-31T11:12:18.398Z,60.80
2022-08-31T11:15:24.101Z,60.90
2022-08-31T11:18:20.216Z,60.80
2022-08-31T11:21:04.717Z,60.90
2022-08-31T11:23:53.358Z,60.80
2022-08-31T11:26:40.429Z,60.60
2022-08-31T11:29:13.531Z,60.70
2022-08-31T11:31:41.799Z,60.80
2022-08-31T11:34:16.433Z,60.90
2022-08-31T11:36:51.070Z,60.70
2022-08-31T11:39:40.417Z,60.60
2022-08-31T11:42:41.041Z,60.60
2022-08-31T11:45:11.895Z,60.60
2022-08-31T11:47:44.234Z,60.50
2022-08-31T11:50:54.013Z,60.60
2022-08-31T11:53:25.253Z,60.70
2022-08-31T11:55:56.921Z,60.50
2022-08-31T11:58:27.067Z,60.50
2022-08-31T12:00:58.606Z,60.60
2022-08-31T12:03:55.706Z,60.50
2022-08-31T12:07:00.389Z,60.60
2022-08-31T12:09:47.133Z,61.40
2022-08-31T12:12:21.885Z,62.20
2022-08-31T12:14:51.965Z,62.40
2022-08-31T12:17:23.291Z,62.30
2022-08-31T12:20:01.928Z,62.00
2022-08-31T12:23:31.129Z,61.90
2022-08-31T12:26:11.179Z,61.80
2022-08-31T12:28:52.137Z,61.80
2022-08-31T12:31:20.517Z,61.80
2022-08-31T12:33:57.239Z,61.80
2022-08-31T12:36:27.648Z,61.80
2022-08-31T12:39:07.329Z,61.80
2022-08-31T12:41:35.459Z,61.70
2022-08-31T12:44:05.068Z,61.50
2022-08-31T12:46:57.673Z,61.40
2022-08-31T12:49:50.216Z,61.20
2022-08-31T12:52:26.434Z,61.00
2022-08-31T12:55:19.478Z,60.70
2022-08-31T12:58:00.175Z,60.50
2022-08-31T13:00:30.751Z,60.10
2022-08-31T13:03:00.659Z,59.80
2022-08-31T13:05:30.495Z,59.60
2022-08-31T13:07:58.782Z,59.40
2022-08-31T13:10:32.065Z,59.20
2022-08-31T13:13:01.529Z,59.00
2022-08-31T13:15:38.610Z,58.60
2022-08-31T13:18:11.072Z,58.60
2022-08-31T13:20:43.375Z,58.50
2022-08-31T13:23:13.209Z,58.40
2022-08-31T13:25:41.558Z,58.10
2022-08-31T13:28:26.244Z,58.00
2022-08-31T13:31:03.273Z,57.90
2022-08-31T13:33:32.910Z,57.80
2022-08-31T13:36:04.220Z,57.70
2022-08-31T13:38:43.279Z,57.70
2022-08-31T13:41:23.989Z,57.50
2022-08-31T13:43:58.943Z,57.20
2022-08-31T13:46:42.348Z,57.10
2022-08-31T13:49:29.721Z,56.40
2022-08-31T13:51:57.877Z,56.20
2022-08-31T13:54:27.546Z,56.10
2022-08-31T13:56:55.714Z,55.90
2022-08-31T13:59:37.039Z,55.70
2022-08-31T14:02:30.721Z,55.40
2022-08-31T14:05:03.529Z,55.00
2022-08-31T14:07:48.165Z,54.50
2022-08-31T14:10:19.347Z,54.40
2022-08-31T14:12:50.539Z,54.10
2022-08-31T14:15:37.195Z,54.10
2022-08-31T14:18:26.392Z,54.30
2022-08-31T14:21:21.885Z,53.60
2022-08-31T14:23:52.656Z,53.60
2022-08-31T14:26:22.918Z,53.60
2022-08-31T14:28:53.294Z,53.40
2022-08-31T14:31:24.503Z,52.70
2022-08-31T14:34:22.570Z,52.70
2022-08-31T14:36:53.931Z,52.90
2022-08-31T14:39:24.336Z,52.50
2022-08-31T14:41:53.060Z,52.50
2022-08-31T14:44:22.645Z,52.10
2022-08-31T14:46:50.834Z,51.60
2022-08-31T14:49:19.060Z,51.60
2022-08-31T14:51:48.647Z,52.30
2022-08-31T14:54:17.980Z,50.10
2022-08-31T14:56:48.855Z,49.90
2022-08-31T14:59:19.167Z,49.10
2022-08-31T15:01:50.718Z,48.40
2022-08-31T15:04:20.897Z,48.30
2022-08-31T15:06:53.882Z,48.50
2022-08-31T15:09:22.254Z,48.60
2022-08-31T15:11:50.956Z,48.20
2022-08-31T15:14:19.199Z,48.40
2022-08-31T15:16:48.682Z,48.50
2022-08-31T15:19:16.965Z,48.50
2022-08-31T15:21:51.812Z,48.40
2022-08-31T15:24:23.863Z,48.90
2022-08-31T15:26:52.667Z,49.50
2022-08-31T15:29:24.762Z,49.60
2022-08-31T15:31:55.069Z,49.90
2022-08-31T15:34:24.731Z,50.00
2022-08-31T15:36:56.164Z,49.90
2022-08-31T15:39:27.003Z,50.00
2022-08-31T15:41:55.141Z,50.30
2022-08-31T15:44:23.215Z,50.40
2022-08-31T15:47:08.835Z,50.60
2022-08-31T15:49:37.530Z,50.80
2022-08-31T15:52:06.917Z,50.70
2022-08-31T15:54:36.692Z,50.80
2022-08-31T15:57:06.097Z,50.90
2022-08-31T15:59:34.771Z,50.90
2022-08-31T16:02:03.079Z,51.00
2022-08-31T16:04:33.325Z,51.10
2022-08-31T16:07:01.685Z,51.10
2022-08-31T16:09:29.890Z,51.10
2022-08-31T16:12:00.037Z,51.10
2022-08-31T16:14:29.474Z,51.20
2022-08-31T16:16:59.739Z,51.30
2022-08-31T16:19:35.454Z,51.40
2022-08-31T16:22:04.485Z,51.50
2022-08-31T16:24:37.185Z,51.60
2022-08-31T16:27:07.956Z,51.60
2022-08-31T16:29:36.277Z,51.60
2022-08-31T16:32:06.685Z,51.70
2022-08-31T16:34:35.500Z,51.70
2022-08-31T16:37:07.214Z,51.70
2022-08-31T16:39:36.086Z,51.70
2022-08-31T16:42:04.247Z,51.70
2022-08-31T16:44:36.705Z,52.00
2022-08-31T16:47:07.252Z,51.80
2022-08-31T16:49:35.842Z,51.90
2022-08-31T16:52:05.992Z,51.90
2022-08-31T16:54:34.308Z,52.00
2022-08-31T16:57:02.411Z,52.00
2022-08-31T16:59:30.819Z,52.00
2022-08-31T17:02:00.384Z,52.10
2022-08-31T17:04:51.407Z,52.10
2022-08-31T17:07:17.593Z,52.10
2022-08-31T17:09:45.759Z,53.10
2022-08-31T17:12:15.292Z,52.10
2022-08-31T17:14:46.812Z,52.10
2022-08-31T17:17:18.058Z,52.20
2022-08-31T17:19:46.494Z,52.30
2022-08-31T17:22:20.042Z,52.20
2022-08-31T17:24:50.798Z,52.20
2022-08-31T17:27:20.432Z,52.20
2022-08-31T17:29:51.022Z,52.20
2022-08-31T17:32:22.860Z,52.30
2022-08-31T17:34:51.627Z,52.40
2022-08-31T17:37:22.972Z,52.50
2022-08-31T17:39:53.130Z,52.60
2022-08-31T17:42:21.895Z,52.60
2022-08-31T17:44:50.799Z,52.60
2022-08-31T17:47:20.328Z,52.60
2022-08-31T17:49:49.847Z,52.60
2022-08-31T17:52:20.602Z,52.60
2022-08-31T17:54:50.913Z,52.50
2022-08-31T17:57:22.002Z,52.60
2022-08-31T17:59:50.286Z,52.50
2022-08-31T18:02:21.271Z,52.60
2022-08-31T18:04:49.558Z,52.40
2022-08-31T18:07:17.797Z,52.40
2022-08-31T18:09:46.909Z,52.40
2022-08-31T18:12:15.398Z,52.40
2022-08-31T18:14:43.601Z,52.30
2022-08-31T18:17:12.881Z,52.30
2022-08-31T18:19:42.369Z,52.60
2022-08-31T18:22:10.977Z,52.30
2022-08-31T18:24:39.214Z,52.30
2022-08-31T18:27:09.251Z,52.60
2022-08-31T18:29:37.674Z,53.40
2022-08-31T18:32:06.799Z,55.40
2022-08-31T18:34:36.846Z,56.20
2022-08-31T18:37:06.947Z,55.70
2022-08-31T18:39:59.719Z,55.00
2022-08-31T18:42:46.701Z,55.80
2022-08-31T18:45:19.787Z,56.10
2022-08-31T18:48:13.659Z,54.20
2022-08-31T18:50:40.643Z,52.60
2022-08-31T18:53:11.045Z,52.20
2022-08-31T18:55:43.805Z,52.50
2022-08-31T18:58:12.158Z,52.70
2022-08-31T19:00:40.852Z,51.50
2022-08-31T19:03:09.402Z,50.60
2022-08-31T19:05:40.274Z,50.10
2022-08-31T19:08:10.279Z,52.40
2022-08-31T19:10:42.223Z,54.40
2022-08-31T19:13:10.657Z,54.40
2022-08-31T19:15:40.051Z,53.90
2022-08-31T19:18:08.539Z,54.50
2022-08-31T19:20:37.182Z,54.60
2022-08-31T19:23:05.823Z,54.50
2022-08-31T19:25:36.526Z,54.20
2022-08-31T19:28:08.073Z,54.10
2022-08-31T19:30:36.360Z,54.10
2022-08-31T19:33:07.714Z,54.00
2022-08-31T19:35:36.478Z,54.00
2022-08-31T19:38:04.991Z,53.90
2022-08-31T19:40:39.313Z,53.70
2022-08-31T19:45:56.546Z,53.90
2022-08-31T19:48:44.057Z,54.00
2022-08-31T19:51:14.257Z,54.10
2022-08-31T19:53:44.541Z,53.90
2022-08-31T19:56:17.650Z,54.00
2022-08-31T19:58:49.104Z,53.70
2022-08-31T20:01:18.339Z,53.70
2022-08-31T20:03:47.856Z,53.70
2022-08-31T20:06:17.443Z,53.60
2022-08-31T20:08:45.700Z,53.60
2022-08-31T20:11:20.701Z,53.40
2022-08-31T20:13:49.867Z,53.50
2022-08-31T20:16:18.307Z,53.70
2022-08-31T20:18:48.745Z,53.70
2022-08-31T20:21:18.441Z,53.20
2022-08-31T20:23:47.807Z,53.90
2022-08-31T20:26:17.603Z,54.10
2022-08-31T20:28:46.912Z,54.50
2022-08-31T20:31:16.553Z,54.70
2022-08-31T20:33:45.505Z,54.70
2022-08-31T20:36:18.254Z,54.90
2022-08-31T20:38:46.622Z,54.90
2022-08-31T20:41:14.890Z,54.90
2022-08-31T20:43:45.159Z,54.60
2022-08-31T20:46:34.485Z,54.70
2022-08-31T20:49:20.160Z,54.70
2022-08-31T20:51:48.301Z,54.80
2022-08-31T20:54:17.387Z,55.80
2022-08-31T20:56:45.542Z,54.90
2022-08-31T20:59:15.025Z,54.90
2022-08-31T21:01:43.148Z,54.90
2022-08-31T21:04:11.308Z,55.00
2022-08-31T21:06:40.176Z,55.00
2022-08-31T21:09:10.039Z,55.10
2022-08-31T21:11:40.865Z,55.10
2022-08-31T21:14:10.220Z,55.10
2022-08-31T21:16:43.069Z,55.10
2022-08-31T21:19:13.588Z,55.20
2022-08-31T21:21:42.062Z,55.20
2022-08-31T21:24:11.500Z,55.30
2022-08-31T21:26:40.992Z,55.30
2022-08-31T21:29:10.365Z,55.30
2022-08-31T21:31:42.150Z,55.30
2022-08-31T21:34:19.222Z,55.40
2022-08-31T21:36:47.421Z,55.50
2022-08-31T21:39:16.707Z,55.40
2022-08-31T21:41:45.934Z,55.50
2022-08-31T21:44:14.971Z,55.60
2022-08-31T21:46:46.958Z,55.90
2022-08-31T21:49:19.406Z,56.40
2022-08-31T21:51:49.749Z,56.70
2022-08-31T21:54:19.144Z,57.30
2022-08-31T21:56:48.153Z,57.60
2022-08-31T21:59:17.355Z,57.70
2022-08-31T22:01:45.873Z,57.60
2022-08-31T22:04:15.955Z,57.60
2022-08-31T22:06:45.545Z,57.90
2022-08-31T22:09:15.742Z,57.90
2022-08-31T22:11:46.001Z,58.00
2022-08-31T22:14:16.072Z,58.00
2022-08-31T22:16:46.597Z,58.10
2022-08-31T22:19:15.821Z,58.10
2022-08-31T22:21:46.262Z,58.10
2022-08-31T22:24:27.751Z,58.00
2022-08-31T22:26:56.810Z,58.00
2022-08-31T22:29:26.259Z,58.00
2022-08-31T22:31:55.299Z,58.00
2022-08-31T22:34:24.064Z,58.10
2022-08-31T22:36:53.842Z,58.00
2022-08-31T22:39:22.931Z,58.00
2022-08-31T22:41:53.134Z,58.10
2022-08-31T22:44:22.620Z,58.00
2022-08-31T22:46:50.963Z,58.10
2022-08-31T22:49:19.633Z,59.10
2022-08-31T22:51:48.477Z,58.10
2022-08-31T22:54:18.979Z,58.30
2022-08-31T22:56:47.320Z,58.20
2022-08-31T22:59:17.724Z,58.30
2022-08-31T23:01:48.346Z,58.30
2022-08-31T23:04:20.233Z,58.40
2022-08-31T23:06:49.106Z,58.50
2022-08-31T23:09:21.211Z,58.60
2022-08-31T23:11:51.461Z,58.60
2022-08-31T23:14:21.040Z,58.60
2022-08-31T23:16:54.422Z,58.60
2022-08-31T23:19:25.641Z,58.60
2022-08-31T23:21:57.529Z,58.70
2022-08-31T23:24:29.756Z,58.80
2022-08-31T23:27:03.811Z,58.90
2022-08-31T23:29:34.520Z,58.90
2022-08-31T23:32:02.988Z,58.80
2022-08-31T23:34:33.902Z,58.90
2022-08-31T23:37:02.918Z,59.00
2022-08-31T23:39:32.486Z,59.00
2022-08-31T23:42:00.652Z,59.00
2022-08-31T23:44:28.875Z,59.10
2022-08-31T23:46:59.297Z,59.20
2022-08-31T23:49:27.451Z,59.10
2022-08-31T23:51:55.627Z,59.20
2022-08-31T23:54:25.113Z,59.20
2022-08-31T23:56:57.692Z,59.30
2022-08-31T23:59:25.923Z,59.40
